Time;durP1;ratioP1;P1;durP2;ratioP2;P2;SDS_P1;SDS_P2;PMS_P1;PMS_P2;Temp;Humidity;BMP_temperature;BMP_pressure;BME280_temperature;BME280_humidity;BME280_pressure;Samples;Min_cycle;Max_cycle;Signal;HPM_P1;HPM_P2
2022/05/25 00:02:21;;;;;;;1.40;1.30;;;17.80;63.00;;;-142.21;97.12;112049.66;5080633;28;20435;-74
2022/05/25 00:04:49;;;;;;;1.27;1.17;;;17.80;63.30;;;-142.21;97.33;112049.66;5080020;28;20474;-76
2022/05/25 00:07:17;;;;;;;1.40;1.23;;;17.70;63.50;;;-142.21;97.92;112049.66;5082119;28;20460;-75
2022/05/25 00:09:46;;;;;;;1.40;1.30;;;17.70;63.70;;;-142.21;98.74;112049.66;5071595;28;20451;-74
2022/05/25 00:12:17;;;;;;;2.20;1.53;;;17.70;63.90;;;-142.21;98.84;112049.66;5085647;28;20491;-75
2022/05/25 00:14:44;;;;;;;1.57;1.47;;;17.70;64.20;;;-142.21;98.94;112049.66;5091829;28;20477;-74
2022/05/25 00:17:12;;;;;;;1.43;1.33;;;17.70;65.00;;;-142.21;99.17;112049.66;5089638;28;20443;-74
2022/05/25 00:22:27;;;;;;;1.40;1.13;;;17.80;64.50;;;-142.21;99.03;112049.66;5079579;28;20434;-74
2022/05/25 00:24:57;;;;;;;1.30;1.20;;;17.80;64.60;;;-142.21;98.79;112049.66;5064645;28;20439;-75
2022/05/25 00:27:24;;;;;;;1.17;1.00;;;17.80;64.40;;;-142.21;98.67;112049.66;5079056;28;20452;-75
2022/05/25 00:29:51;;;;;;;1.93;1.10;;;17.80;64.30;;;-142.21;98.86;112049.66;5079035;28;20968;-75
2022/05/25 00:32:19;;;;;;;2.07;1.13;;;17.90;64.30;;;-142.21;99.20;112049.66;5081986;28;20447;-75
2022/05/25 00:34:46;;;;;;;1.77;1.50;;;17.80;64.50;;;-142.21;99.27;112049.66;5086543;28;20585;-75
2022/05/25 00:37:13;;;;;;;1.37;1.23;;;17.80;64.40;;;-142.21;99.76;112049.66;5094506;28;20469;-75
2022/05/25 00:39:41;;;;;;;1.63;1.17;;;17.70;64.90;;;-142.21;100.00;112049.66;5078682;28;20449;-75
2022/05/25 00:42:09;;;;;;;1.40;1.30;;;17.70;65.10;;;-142.21;100.00;112049.66;5080983;28;20451;-75
2022/05/25 00:44:36;;;;;;;2.47;1.23;;;17.70;65.10;;;-142.21;100.00;112049.66;5082627;28;20442;-74
2022/05/25 00:47:04;;;;;;;1.60;1.17;;;17.80;65.00;;;-142.21;100.00;112049.66;5077399;28;20443;-75
2022/05/25 00:49:36;;;;;;;1.50;1.40;;;17.80;65.10;;;-142.21;100.00;112049.66;5074994;28;20439;-74
2022/05/25 00:52:08;;;;;;;1.30;1.20;;;17.80;65.60;;;-142.21;100.00;112049.66;5063844;28;20435;-75
2022/05/25 00:54:42;;;;;;;2.67;1.10;;;17.80;65.60;;;-142.21;100.00;112049.66;5092390;28;20470;-75
2022/05/25 00:57:15;;;;;;;1.20;1.10;;;17.80;65.70;;;-142.21;100.00;112049.66;5089493;28;20443;-74
2022/05/25 00:59:55;;;;;;;1.07;1.07;;;17.80;65.70;;;-142.21;100.00;112049.66;5082488;28;20445;-75
2022/05/25 01:02:23;;;;;;;1.40;1.30;;;17.80;65.50;;;-142.21;100.00;112049.66;5092837;28;20443;-75
2022/05/25 01:04:50;;;;;;;1.40;1.30;;;17.80;65.20;;;-142.21;100.00;112049.66;5088456;28;20478;-75
2022/05/25 01:07:39;;;;;;;1.23;1.10;;;17.80;65.10;;;-142.21;100.00;112049.66;5080824;28;20489;-74
2022/05/25 01:10:27;;;;;;;1.47;1.30;;;17.80;65.70;;;-142.21;100.00;112049.66;5094958;28;20514;-75
2022/05/25 01:13:13;;;;;;;2.03;1.40;;;17.90;65.80;;;-142.21;99.86;112049.66;5084953;28;20445;-74
2022/05/25 01:15:54;;;;;;;1.60;1.50;;;17.80;65.40;;;-142.21;99.88;112049.66;5086443;28;20495;-74
2022/05/25 01:18:34;;;;;;;3.40;1.50;;;17.80;65.50;;;-142.21;100.00;112049.66;5093704;28;20446;-75
2022/05/25 01:21:12;;;;;;;3.47;1.30;;;17.80;65.70;;;-142.21;100.00;112049.66;5082616;28;20445;-75
2022/05/25 01:24:14;;;;;;;1.00;0.90;;;17.70;65.70;;;-142.21;100.00;112049.66;5083251;28;20437;-75
2022/05/25 01:27:28;;;;;;;1.40;1.30;;;17.70;65.80;;;-142.21;100.00;112049.66;5078914;28;20799;-75
2022/05/25 01:30:20;;;;;;;1.90;1.30;;;17.80;66.40;;;-142.21;99.64;112049.66;5070507;28;20451;-74
2022/05/25 01:33:15;;;;;;;1.67;1.30;;;17.80;65.10;;;-142.21;99.12;112049.66;5075561;28;20455;-74
2022/05/25 01:35:59;;;;;;;1.00;1.00;;;17.80;64.70;;;-142.21;98.92;112049.66;5079853;28;20517;-75
2022/05/25 01:38:34;;;;;;;1.20;1.10;;;17.80;64.40;;;-142.21;98.81;112049.66;5093143;28;20526;-74
2022/05/25 01:41:08;;;;;;;1.17;0.97;;;17.80;64.10;;;-142.21;98.67;112049.66;5079726;28;20449;-75
2022/05/25 01:43:43;;;;;;;0.83;0.83;;;17.80;64.20;;;-142.21;98.20;112049.66;5084408;28;20467;-75
2022/05/25 01:46:26;;;;;;;1.30;1.20;;;17.80;65.20;;;-142.21;98.25;112049.66;5075484;28;20446;-74
2022/05/25 01:48:56;;;;;;;0.90;0.90;;;17.90;64.80;;;-142.21;98.31;112049.66;5090781;28;20430;-74
2022/05/25 01:51:33;;;;;;;2.40;1.07;;;17.90;64.60;;;-142.21;99.32;112049.66;5078765;28;20435;-74
2022/05/25 01:54:05;;;;;;;0.90;0.90;;;17.90;65.10;;;-142.21;98.64;112049.66;5091657;28;20477;-74
2022/05/25 01:56:39;;;;;;;1.10;1.00;;;18.00;64.60;;;-142.21;97.29;112049.66;5087287;28;20961;-74
2022/05/25 01:59:10;;;;;;;2.13;0.90;;;18.00;63.80;;;-142.21;97.54;112049.66;5081342;28;20522;-75
2022/05/25 02:01:49;;;;;;;1.60;1.17;;;18.00;63.50;;;-142.21;97.74;112049.66;5081352;28;20923;-75
2022/05/25 02:04:21;;;;;;;1.07;0.97;;;18.00;64.00;;;-142.21;97.59;112049.66;5074966;28;20474;-74
2022/05/25 02:07:09;;;;;;;1.40;1.10;;;18.00;63.50;;;-142.21;97.56;112049.66;5083409;28;20446;-75
2022/05/25 02:10:24;;;;;;;1.27;1.00;;;18.00;63.80;;;-142.21;98.71;112049.66;5074047;28;20538;-75
2022/05/25 02:13:22;;;;;;;1.47;0.90;;;18.00;64.50;;;-142.21;98.50;112049.66;5035070;28;20859;-75
2022/05/25 02:16:06;;;;;;;2.77;1.47;;;18.00;64.70;;;-142.21;98.22;112049.66;5059406;28;20459;-74
2022/05/25 02:18:43;;;;;;;1.83;1.23;;;18.00;64.10;;;-142.21;98.49;112049.66;5077725;28;20470;-75
2022/05/25 02:21:18;;;;;;;0.97;0.97;;;18.00;64.30;;;-142.21;98.71;112049.66;5083283;28;20443;-74
2022/05/25 02:23:54;;;;;;;1.43;1.00;;;17.90;64.40;;;-142.21;98.81;112049.66;5080601;28;20439;-74
2022/05/25 02:26:28;;;;;;;1.47;0.80;;;18.00;64.60;;;-142.21;98.43;112049.66;5077298;28;20438;-75
2022/05/25 02:29:05;;;;;;;1.07;0.97;;;18.00;64.30;;;-142.21;98.01;112049.66;5093300;28;20438;-75
2022/05/25 02:31:38;;;;;;;2.57;1.07;;;17.90;64.00;;;-142.21;98.01;112049.66;5087511;28;20466;-74
2022/05/25 02:34:11;;;;;;;0.97;0.83;;;17.90;64.60;;;-142.21;98.36;112049.66;5092207;28;20486;-75
2022/05/25 02:36:42;;;;;;;1.83;1.20;;;17.90;64.10;;;-142.21;98.27;112049.66;5082638;28;20427;-74
2022/05/25 02:39:12;;;;;;;1.43;1.30;;;17.90;64.10;;;-142.21;98.51;112049.66;5074499;28;20458;-75
2022/05/25 02:41:47;;;;;;;1.17;1.07;;;17.90;64.90;;;-142.21;98.73;112049.66;5079123;28;20438;-74
2022/05/25 02:44:14;;;;;;;1.57;1.20;;;17.90;64.50;;;-142.21;98.77;112049.66;5093066;28;20529;-75
2022/05/25 02:46:41;;;;;;;1.27;1.10;;;17.90;65.10;;;-142.21;98.69;112049.66;5088860;28;20826;-75
2022/05/25 02:49:12;;;;;;;1.17;1.03;;;17.90;64.20;;;-142.21;98.81;112049.66;5087223;28;20483;-74
2022/05/25 02:51:39;;;;;;;1.20;1.10;;;17.90;64.50;;;-142.21;98.94;112049.66;5080303;28;20439;-75
2022/05/25 02:54:08;;;;;;;1.30;1.20;;;17.90;64.40;;;-142.21;99.01;112049.66;5077890;28;20479;-76
2022/05/25 02:56:35;;;;;;;1.23;1.10;;;17.90;64.40;;;-142.21;98.93;112049.66;5073795;28;20526;-75
2022/05/25 02:59:05;;;;;;;1.70;1.47;;;17.80;64.20;;;-142.21;98.37;112049.66;5075279;28;20442;-75
2022/05/25 03:01:32;;;;;;;2.40;1.30;;;17.90;64.00;;;-142.21;98.52;112049.66;5088855;28;20454;-75
2022/05/25 03:03:59;;;;;;;1.63;1.10;;;17.80;64.00;;;-142.21;98.47;112049.66;5083802;28;20529;-76
2022/05/25 03:06:31;;;;;;;1.00;1.00;;;17.80;64.00;;;-142.21;97.99;112049.66;5082975;28;20449;-75
2022/05/25 03:08:58;;;;;;;2.97;0.97;;;17.80;63.90;;;-142.21;97.82;112049.66;5087665;28;20942;-74
2022/05/25 03:11:27;;;;;;;1.30;1.03;;;17.70;63.60;;;-142.21;98.08;112049.66;5079760;28;20435;-75
2022/05/25 03:13:54;;;;;;;1.10;1.03;;;17.70;63.80;;;-142.21;98.24;112049.66;5076137;28;20543;-75
2022/05/25 03:16:22;;;;;;;1.20;1.10;;;17.70;63.90;;;-142.21;98.17;112049.66;5091199;28;20457;-74
2022/05/25 03:18:51;;;;;;;1.33;0.80;;;17.60;63.80;;;-142.21;97.69;112049.66;5085743;28;20446;-74
2022/05/25 03:21:18;;;;;;;1.47;1.37;;;17.60;63.70;;;-142.21;98.48;112049.66;5086560;28;20886;-74
2022/05/25 03:23:47;;;;;;;1.37;1.10;;;17.60;64.30;;;-142.21;98.35;112049.66;5072226;28;20486;-74
2022/05/25 03:26:14;;;;;;;1.13;1.10;;;17.60;64.30;;;-142.21;98.81;112049.66;5075349;28;20444;-74
2022/05/25 03:28:41;;;;;;;1.30;1.23;;;17.60;64.50;;;-142.21;99.25;112049.66;5085283;28;20451;-75
2022/05/25 03:31:10;;;;;;;1.30;1.17;;;17.60;64.60;;;-142.21;99.45;112049.66;5073953;28;20463;-74
2022/05/25 03:33:37;;;;;;;1.80;1.00;;;17.50;64.70;;;-142.21;99.90;112049.66;5092389;28;20508;-75
2022/05/25 03:36:07;;;;;;;0.90;0.90;;;17.50;64.90;;;-142.21;99.81;112049.66;5078878;28;20448;-75
2022/05/25 03:38:34;;;;;;;1.63;1.10;;;17.50;65.00;;;-142.21;99.66;112049.66;5075117;28;20447;-75
2022/05/25 03:41:06;;;;;;;1.00;1.00;;;17.50;65.00;;;-142.21;99.35;112049.66;5084945;28;20452;-75
2022/05/25 03:43:39;;;;;;;2.27;0.87;;;17.50;64.80;;;-142.21;99.07;112049.66;5076931;28;20450;-75
2022/05/25 03:46:06;;;;;;;1.53;1.20;;;17.50;64.80;;;-142.21;99.43;112049.66;5085465;28;20525;-75
2022/05/25 03:48:33;;;;;;;1.40;1.13;;;17.50;64.80;;;-142.21;99.30;112049.66;5089306;28;20461;-74
2022/05/25 03:51:00;;;;;;;2.33;1.40;;;17.40;64.70;;;-142.21;99.85;112049.66;5084200;28;20915;-74
2022/05/25 03:53:28;;;;;;;1.00;1.00;;;17.40;65.00;;;-142.21;100.00;112049.66;5090542;28;20465;-74
2022/05/25 03:55:55;;;;;;;1.57;1.07;;;17.40;65.20;;;-142.21;99.85;112049.66;5094778;28;20482;-74
2022/05/25 03:58:24;;;;;;;1.30;1.20;;;17.40;65.10;;;-142.21;100.00;112049.66;5084634;28;20797;-73
2022/05/25 04:00:51;;;;;;;1.37;1.27;;;17.40;65.10;;;-142.21;100.00;112049.66;5077993;28;20447;-75
2022/05/25 04:03:18;;;;;;;1.67;1.40;;;17.40;65.10;;;-142.21;99.77;112049.66;5037659;28;20456;-75
2022/05/25 04:05:45;;;;;;;1.57;1.40;;;17.30;65.10;;;-142.21;99.86;112049.66;5089331;28;20483;-75
2022/05/25 04:08:12;;;;;;;2.60;1.33;;;17.30;65.20;;;-142.21;100.00;112049.66;5089504;28;20543;-75
2022/05/25 04:10:40;;;;;;;1.30;1.20;;;17.20;65.60;;;-142.21;100.00;112049.66;5076318;28;20450;-75
2022/05/25 04:13:07;;;;;;;1.73;1.53;;;17.10;66.10;;;-142.21;100.00;112049.66;5075967;28;20450;-75
2022/05/25 04:15:36;;;;;;;1.63;1.53;;;17.00;66.10;;;-142.21;100.00;112049.66;5092974;28;20512;-76
2022/05/25 04:18:05;;;;;;;2.43;1.40;;;17.00;66.10;;;-142.21;100.00;112049.66;5089559;28;20447;-75
2022/05/25 04:20:33;;;;;;;1.00;1.00;;;17.00;66.10;;;-142.21;100.00;112049.66;5081339;28;20442;-74
2022/05/25 04:23:02;;;;;;;1.40;1.30;;;16.90;66.20;;;-142.21;100.00;112049.66;5077073;28;20439;-75
2022/05/25 04:25:30;;;;;;;3.07;1.53;;;16.90;66.40;;;-142.21;100.00;112049.66;5077601;28;20474;-76
2022/05/25 04:27:58;;;;;;;2.00;1.30;;;16.80;66.60;;;-142.21;100.00;112049.66;5075388;28;20531;-75
2022/05/25 04:30:29;;;;;;;1.47;1.10;;;16.80;66.60;;;-142.21;100.00;112049.66;5086359;28;20466;-75
2022/05/25 04:33:01;;;;;;;2.93;1.30;;;16.90;66.70;;;-142.21;100.00;112049.66;5092669;28;20508;-74
2022/05/25 04:35:28;;;;;;;1.50;1.07;;;16.90;66.50;;;-142.21;100.00;112049.66;5086749;28;20471;-74
2022/05/25 04:37:56;;;;;;;1.33;1.23;;;16.90;66.30;;;-142.21;100.00;112049.66;5080737;28;20623;-75
2022/05/25 04:40:28;;;;;;;1.13;1.13;;;16.90;66.20;;;-142.21;100.00;112049.66;5079731;28;20449;-75
2022/05/25 04:42:58;;;;;;;1.33;1.23;;;16.90;66.30;;;-142.21;100.00;112049.66;5080109;28;20428;-75
2022/05/25 04:45:27;;;;;;;2.43;1.60;;;16.90;66.20;;;-142.21;100.00;112049.66;5093424;28;20841;-75
2022/05/25 04:47:57;;;;;;;3.83;2.00;;;16.90;66.40;;;-142.21;100.00;112049.66;5092407;28;20950;-75
2022/05/25 04:50:30;;;;;;;8.00;2.67;;;17.00;66.70;;;-142.21;100.00;112049.66;5083115;28;20439;-75
2022/05/25 04:52:59;;;;;;;2.93;1.80;;;17.00;66.50;;;-142.21;100.00;112049.66;5083325;28;20436;-75
2022/05/25 04:58:20;;;;;;;1.20;1.10;;;17.00;65.50;;;-142.21;100.00;112049.66;5086447;28;20914;-76
2022/05/25 05:00:47;;;;;;;0.87;0.87;;;17.00;65.40;;;-142.21;100.00;112049.66;5076070;28;20493;-75
2022/05/25 05:03:16;;;;;;;1.30;1.20;;;17.00;65.20;;;-142.21;100.00;112049.66;5073854;28;20457;-75
2022/05/25 05:05:43;;;;;;;2.40;1.87;;;17.00;65.40;;;-142.21;100.00;112049.66;5081673;28;20890;-75
2022/05/25 05:08:11;;;;;;;1.10;1.00;;;17.00;65.30;;;-142.21;99.95;112049.66;5092424;28;20446;-75
2022/05/25 05:10:40;;;;;;;1.10;1.00;;;17.10;65.40;;;-142.21;99.22;112049.66;5093178;28;20442;-76
2022/05/25 05:13:08;;;;;;;1.63;1.30;;;17.10;65.20;;;-142.21;98.91;112049.66;5080124;28;20448;-75
2022/05/25 05:15:40;;;;;;;1.50;1.10;;;17.20;65.00;;;-142.21;98.54;112049.66;5087809;28;20482;-75
2022/05/25 05:18:09;;;;;;;2.17;1.60;;;17.30;64.90;;;-142.21;98.20;112049.66;5093822;28;20435;-76
2022/05/25 05:20:38;;;;;;;3.50;1.23;;;17.40;64.70;;;-142.21;98.58;112049.66;5092066;28;20813;-76
2022/05/25 05:23:06;;;;;;;1.60;1.50;;;17.40;64.70;;;-142.21;98.28;112049.66;5080804;28;20935;-76
2022/05/25 05:25:34;;;;;;;1.47;1.20;;;17.50;64.80;;;-142.21;96.83;112049.66;5074235;28;20443;-75
2022/05/25 05:28:07;;;;;;;1.53;1.43;;;17.60;64.10;;;-142.21;95.63;112049.66;5074604;28;20474;-76
2022/05/25 05:30:38;;;;;;;1.53;1.10;;;17.60;63.60;;;-142.21;94.63;112049.66;5089648;28;20466;-76
2022/05/25 05:33:05;;;;;;;1.53;1.23;;;17.70;63.20;;;-142.21;95.13;112049.66;5089915;28;20971;-76
2022/05/25 05:35:37;;;;;;;1.30;1.20;;;17.80;63.30;;;-142.21;93.71;112049.66;5084360;28;20573;-76
2022/05/25 05:38:05;;;;;;;1.43;1.00;;;17.80;62.50;;;-142.21;92.99;112049.66;5053360;28;20428;-75
2022/05/25 05:40:33;;;;;;;1.23;1.13;;;17.90;62.30;;;-142.21;92.62;112049.66;5092717;28;20807;-76
2022/05/25 05:43:03;;;;;;;1.40;1.30;;;17.90;62.30;;;-142.21;92.35;112049.66;5084926;28;20446;-75
2022/05/25 05:45:37;;;;;;;2.50;1.37;;;17.90;62.00;;;-142.21;92.71;112049.66;5074827;28;20463;-75
2022/05/25 05:48:12;;;;;;;1.40;1.30;;;18.00;62.10;;;-142.21;92.22;112049.66;5071416;28;20434;-75
2022/05/25 05:50:44;;;;;;;1.10;1.10;;;18.20;61.90;;;-142.21;90.66;112049.66;5073386;28;20472;-75
2022/05/25 05:53:15;;;;;;;1.43;1.30;;;18.10;61.10;;;-142.21;90.67;112049.66;5072677;28;20514;-75
2022/05/25 05:55:44;;;;;;;2.80;1.43;;;18.10;61.20;;;-142.21;91.13;112049.66;5073703;28;20475;-75
2022/05/25 05:58:12;;;;;;;1.30;1.20;;;18.20;61.40;;;-142.21;90.00;112049.66;5071503;28;20443;-75
2022/05/25 06:00:41;;;;;;;2.87;1.40;;;18.30;60.70;;;-142.21;87.48;112049.66;5072495;28;21016;-75
2022/05/25 06:03:08;;;;;;;3.40;1.17;;;18.40;59.90;;;-142.21;87.55;112049.66;5072442;28;20457;-75
2022/05/25 06:05:36;;;;;;;2.23;1.10;;;18.30;59.80;;;-142.21;88.20;112049.66;5072390;28;20507;-76
2022/05/25 06:08:11;;;;;;;2.30;1.30;;;18.40;60.00;;;-142.21;85.93;112049.66;5072201;28;20446;-75
2022/05/25 06:10:40;;;;;;;1.50;1.40;;;18.60;59.10;;;-142.21;87.14;112049.66;5073066;28;20828;-75
2022/05/25 06:13:08;;;;;;;1.20;0.93;;;18.60;60.10;;;-142.21;85.42;112049.66;5072776;28;20439;-75
2022/05/25 06:21:04;;;;;;;1.00;1.00;;;18.80;58.60;;;-142.21;82.37;112049.66;5076176;28;20480;-74
2022/05/25 06:23:33;;;;;;;1.13;1.03;;;18.80;58.10;;;-142.21;82.33;112049.66;5073038;28;20443;-74
2022/05/25 06:26:00;;;;;;;1.30;1.20;;;18.90;58.00;;;-142.21;81.40;112049.66;5072325;28;20536;-73
2022/05/25 06:28:27;;;;;;;1.40;1.30;;;19.00;57.80;;;-142.21;81.80;112049.66;5073047;28;20482;-74
2022/05/25 06:30:55;;;;;;;1.37;1.20;;;19.10;57.60;;;-142.21;82.11;112049.66;5071967;28;20480;-74
2022/05/25 06:33:22;;;;;;;0.97;0.97;;;19.20;57.70;;;-142.21;80.86;112049.66;5086048;28;20554;-75
2022/05/25 06:35:52;;;;;;;2.07;0.90;;;19.20;57.30;;;-142.21;80.95;112049.66;5073316;28;20570;-75
2022/05/25 06:38:22;;;;;;;1.40;1.20;;;19.30;57.40;;;-142.21;80.16;112049.66;5089195;28;20450;-75
2022/05/25 06:40:50;;;;;;;1.30;1.07;;;19.30;56.90;;;-142.21;79.30;112049.66;5093045;28;20204;-77
2022/05/25 06:43:19;;;;;;;3.07;1.30;;;19.30;56.90;;;-142.21;78.43;112049.66;5092777;28;20538;-75
2022/05/25 06:45:46;;;;;;;2.43;1.23;;;19.20;56.70;;;-142.21;78.53;112049.66;5092182;28;20470;-74
2022/05/25 06:48:13;;;;;;;2.23;1.17;;;19.10;56.70;;;-142.21;79.50;112049.66;5091608;28;20529;-75
2022/05/25 06:50:41;;;;;;;1.63;1.23;;;19.10;56.80;;;-142.21;78.54;112049.66;5092745;28;20203;-74
2022/05/25 06:53:09;;;;;;;1.40;1.30;;;19.10;57.10;;;-142.21;79.50;112049.66;5092202;28;20215;-74
2022/05/25 06:55:36;;;;;;;2.87;1.23;;;19.20;57.90;;;-142.21;78.26;112049.66;5092723;28;20489;-75
2022/05/25 06:58:05;;;;;;;1.17;1.07;;;19.40;57.00;;;-142.21;77.59;112049.66;5091900;28;20291;-74
2022/05/25 07:00:32;;;;;;;1.23;1.00;;;19.50;56.60;;;-142.21;76.36;112049.66;5076326;28;20260;-75
2022/05/25 07:03:03;;;;;;;1.93;1.40;;;19.60;56.20;;;-142.21;75.91;112049.66;5070380;28;20493;-75
2022/05/25 07:05:32;;;;;;;1.37;1.27;;;19.70;55.90;;;-142.21;76.95;112049.66;5071988;28;20471;-75
2022/05/25 07:08:09;;;;;;;1.93;1.40;;;19.80;56.00;;;-142.21;77.21;112049.66;5071370;28;20459;-76
2022/05/25 07:10:36;;;;;;;2.57;1.00;;;19.90;56.30;;;-142.21;74.38;112049.66;5072381;28;20224;-75
2022/05/25 07:13:07;;;;;;;2.33;1.43;;;19.90;55.60;;;-142.21;77.63;112049.66;5071432;28;20569;-75
2022/05/25 07:15:35;;;;;;;1.43;1.27;;;20.10;56.20;;;-142.21;76.40;112049.66;5073325;28;20213;-75
2022/05/25 07:18:02;;;;;;;1.57;1.37;;;20.20;55.90;;;-142.21;74.95;112049.66;5071562;28;20759;-75
2022/05/25 07:20:30;;;;;;;1.63;1.20;;;20.20;55.40;;;-142.21;74.67;112049.66;5071732;28;20447;-75
2022/05/25 07:22:57;;;;;;;1.37;1.27;;;20.30;55.40;;;-142.21;72.19;112049.66;5071509;28;20542;-75
2022/05/25 07:25:24;;;;;;;3.10;1.80;;;20.40;54.40;;;-142.21;70.57;112049.66;5072036;28;20197;-75
2022/05/25 07:27:53;;;;;;;1.30;1.17;;;20.40;54.20;;;-142.21;73.13;112049.66;5071792;28;20209;-75
2022/05/25 07:30:22;;;;;;;1.43;1.33;;;20.50;54.80;;;-142.21;72.38;112049.66;5071937;28;20233;-75
2022/05/25 07:32:49;;;;;;;3.43;1.37;;;20.60;54.40;;;-142.21;71.13;112049.66;5071425;28;20260;-75
2022/05/25 07:35:18;;;;;;;1.20;1.10;;;20.70;54.00;;;-142.21;69.06;112049.66;5071180;28;20229;-75
2022/05/25 07:37:53;;;;;;;1.87;1.50;;;20.70;53.40;;;-142.21;69.00;112049.66;5070739;28;20534;-75
2022/05/25 07:40:25;;;;;;;3.37;1.27;;;20.70;53.40;;;-142.21;69.59;112049.66;5071676;28;20224;-75
2022/05/25 07:43:00;;;;;;;2.00;1.23;;;20.80;53.70;;;-142.21;70.75;112049.66;5071430;28;20228;-75
2022/05/25 07:45:29;;;;;;;1.50;1.40;;;20.90;53.70;;;-142.21;65.12;112049.66;5092404;28;20200;-75
2022/05/25 07:47:56;;;;;;;1.53;1.30;;;21.00;52.80;;;-142.21;67.60;112049.66;5058359;28;20211;-75
2022/05/25 07:50:25;;;;;;;2.47;1.43;;;21.00;53.20;;;-142.21;66.22;112049.66;5092222;28;20204;-75
2022/05/25 07:52:57;;;;;;;3.90;1.70;;;21.00;52.80;;;-142.21;65.23;112049.66;5101465;28;20567;-75
2022/05/25 07:55:24;;;;;;;1.43;1.33;;;21.10;52.70;;;-142.21;65.79;112049.66;5098502;28;20204;-74
2022/05/25 07:57:51;;;;;;;1.30;1.20;;;21.20;52.80;;;-142.21;66.12;112049.66;5074513;28;20230;-74
2022/05/25 08:00:24;;;;;;;1.50;1.10;;;21.30;52.60;;;-142.21;65.46;112049.66;5085034;28;20285;-75
2022/05/25 08:05:54;;;;;;;2.90;1.60;;;21.40;52.80;;;-142.21;64.46;112049.66;5091514;28;20299;-75
2022/05/25 08:08:25;;;;;;;1.87;1.20;;;21.50;52.50;;;-142.21;61.21;112049.66;5091948;28;20195;-75
2022/05/25 08:10:56;;;;;;;3.20;1.40;;;21.50;51.50;;;-142.21;59.80;112049.66;5091636;28;20214;-75
2022/05/25 08:13:26;;;;;;;1.73;1.53;;;21.60;51.20;;;-142.21;59.01;112049.66;5091892;28;20210;-75
2022/05/25 08:15:53;;;;;;;2.03;1.30;;;21.70;51.00;;;-142.21;57.70;112049.66;5089902;28;20323;-75
2022/05/25 08:18:23;;;;;;;1.07;0.90;;;21.70;50.70;;;-142.21;59.41;112049.66;5091106;28;20204;-75
2022/05/25 08:20:50;;;;;;;3.40;1.10;;;21.70;50.70;;;-142.21;55.95;112049.66;5091810;28;20193;-74
2022/05/25 08:23:18;;;;;;;1.43;1.17;;;21.70;50.10;;;-142.21;54.87;112049.66;5091156;28;20269;-74
2022/05/25 08:25:48;;;;;;;2.27;1.30;;;21.60;49.70;;;-142.21;56.39;112049.66;5074978;28;20233;-75
2022/05/25 08:28:15;;;;;;;1.73;1.40;;;21.70;50.30;;;-142.21;56.64;112049.66;5070780;28;20200;-75
2022/05/25 08:30:45;;;;;;;2.20;1.37;;;21.80;50.70;;;-142.21;53.89;112049.66;5071345;28;20317;-75
2022/05/25 08:33:13;;;;;;;2.10;1.30;;;21.80;49.60;;;-142.21;52.39;112049.66;5070674;28;20589;-74
2022/05/25 08:35:41;;;;;;;1.10;1.00;;;22.00;49.20;;;-142.21;48.61;112049.66;5070943;28;20278;-75
2022/05/25 08:38:09;;;;;;;1.30;0.80;;;22.00;47.90;;;-142.21;48.79;112049.66;5070469;28;20205;-74
2022/05/25 08:40:36;;;;;;;1.37;1.03;;;22.00;47.40;;;-142.21;51.61;112049.66;5072913;28;20244;-75
2022/05/25 08:43:09;;;;;;;2.47;1.30;;;22.20;48.70;;;-142.21;51.06;112049.66;5078027;28;20188;-75
2022/05/25 08:45:41;;;;;;;4.17;1.73;;;22.40;48.60;;;-142.21;48.59;112049.66;5086283;28;20192;-74
2022/05/25 08:48:11;;;;;;;2.70;1.03;;;22.50;47.20;;;-142.21;49.38;112049.66;5074319;28;20285;-75
2022/05/25 08:50:41;;;;;;;2.20;1.17;;;22.40;47.90;;;-142.21;50.72;112049.66;5074630;28;20200;-75
2022/05/25 08:53:14;;;;;;;2.20;1.27;;;22.40;48.30;;;-142.21;50.41;112049.66;5074106;28;20669;-74
2022/05/25 08:55:57;;;;;;;1.03;0.80;;;22.50;48.30;;;-142.21;47.05;112049.66;5074305;28;20239;-75
2022/05/25 08:58:34;;;;;;;1.97;0.90;;;22.80;46.90;;;-142.21;48.61;112049.66;5077975;28;20188;-75
2022/05/25 09:01:06;;;;;;;0.97;0.83;;;22.90;47.50;;;-142.21;44.66;112049.66;5094183;28;20231;-75
2022/05/25 09:03:49;;;;;;;0.80;0.80;;;23.00;45.90;;;-142.21;45.79;112049.66;5094682;28;20295;-74
2022/05/25 09:06:34;;;;;;;1.53;1.10;;;23.00;45.60;;;-142.21;44.46;112049.66;5094401;28;20216;-74
2022/05/25 09:09:07;;;;;;;1.33;0.90;;;23.10;45.30;;;-142.21;45.59;112049.66;5094164;28;20192;-74
2022/05/25 09:11:42;;;;;;;1.70;1.23;;;23.00;45.70;;;-142.21;45.27;112049.66;5094673;28;20247;-75
2022/05/25 09:14:21;;;;;;;2.63;1.70;;;23.00;45.50;;;-142.21;43.02;112049.66;5092106;28;20254;-73
2022/05/25 09:16:55;;;;;;;2.07;1.07;;;23.00;44.10;;;-142.21;44.06;112049.66;5094593;28;20205;-73
2022/05/25 09:19:29;;;;;;;1.73;1.13;;;23.00;45.10;;;-142.21;42.80;112049.66;5093846;28;20706;-75
2022/05/25 09:22:05;;;;;;;1.13;1.03;;;23.00;44.40;;;-142.21;44.73;112049.66;5094810;28;20280;-75
2022/05/25 09:24:34;;;;;;;1.40;1.30;;;23.00;45.10;;;-142.21;43.82;112049.66;5088069;28;20189;-75
2022/05/25 09:27:06;;;;;;;2.13;1.13;;;22.90;45.00;;;-142.21;42.81;112049.66;5072134;28;20255;-75
2022/05/25 09:29:34;;;;;;;2.00;0.90;;;22.80;44.50;;;-142.21;42.76;112049.66;5089592;28;20243;-74
2022/05/25 09:32:18;;;;;;;1.40;0.93;;;22.70;44.50;;;-142.21;41.96;112049.66;5093854;28;20228;-74
2022/05/25 09:34:58;;;;;;;1.80;0.67;;;22.80;43.90;;;-142.21;40.65;112049.66;5094082;28;20204;-76
2022/05/25 09:37:37;;;;;;;2.47;1.10;;;22.80;42.70;;;-142.21;40.91;112049.66;5093308;28;20209;-76
2022/05/25 09:40:11;;;;;;;1.67;1.00;;;22.90;43.10;;;-142.21;40.42;112049.66;5093888;28;20275;-75
2022/05/25 09:42:39;;;;;;;1.67;1.10;;;23.00;43.40;;;-142.21;40.44;112049.66;5092973;28;20192;-75
2022/05/25 09:45:13;;;;;;;1.33;1.20;;;23.20;43.30;;;-142.21;40.24;112049.66;5093038;28;20289;-76
2022/05/25 09:47:44;;;;;;;1.70;0.90;;;23.30;43.10;;;-142.21;39.87;112049.66;5092866;28;20193;-76
2022/05/25 09:50:25;;;;;;;2.30;1.13;;;23.40;43.00;;;-142.21;40.83;112049.66;5093752;28;20195;-75
2022/05/25 09:52:55;;;;;;;0.93;0.83;;;23.50;43.30;;;-142.21;42.93;112049.66;5093091;28;20192;-75
2022/05/25 09:55:29;;;;;;;2.00;1.23;;;23.60;44.30;;;-142.21;39.73;112049.66;5093745;28;20292;-75
2022/05/25 09:58:02;;;;;;;1.93;1.10;;;23.50;41.80;;;-142.21;40.39;112049.66;5088391;28;20642;-75
2022/05/25 10:00:55;;;;;;;1.10;1.00;;;23.40;42.70;;;-142.21;41.23;112049.66;5073283;28;20230;-74
2022/05/25 10:03:35;;;;;;;1.50;1.10;;;23.30;43.20;;;-142.21;41.01;112049.66;5072924;28;20302;-75
2022/05/25 10:06:23;;;;;;;1.90;1.00;;;23.20;43.20;;;-142.21;41.87;112049.66;5072329;28;20272;-74
2022/05/25 10:09:16;;;;;;;1.67;1.10;;;23.40;43.80;;;-142.21;42.19;112049.66;5074639;28;20276;-75
2022/05/25 10:11:48;;;;;;;1.67;1.27;;;23.60;44.50;;;-142.21;40.60;112049.66;5073345;28;20193;-75
2022/05/25 10:14:29;;;;;;;2.93;1.13;;;23.70;43.00;;;-142.21;42.05;112049.66;5072465;28;20241;-75
2022/05/25 10:17:04;;;;;;;2.57;1.20;;;23.70;43.70;;;-142.21;40.06;112049.66;5073600;28;20217;-75
2022/05/25 10:19:37;;;;;;;1.57;0.93;;;23.80;43.10;;;-142.21;38.83;112049.66;5073399;28;20237;-75
2022/05/25 10:22:05;;;;;;;1.57;1.00;;;23.80;41.30;;;-142.21;39.78;112049.66;5072227;28;20249;-74
2022/05/25 10:24:41;;;;;;;0.90;0.90;;;23.80;42.60;;;-142.21;39.21;112049.66;5074584;28;20195;-74
2022/05/25 10:27:34;;;;;;;4.50;1.07;;;23.80;42.10;;;-142.21;40.05;112049.66;5052606;28;20199;-74
2022/05/25 10:38:45;;;;;;;3.90;1.30;;;23.90;41.00;;;-142.21;38.92;112049.66;5052927;28;20200;-74
2022/05/25 10:44:16;;;;;;;1.30;0.90;;;24.10;41.00;;;-142.21;37.92;112049.66;5092876;28;20201;-75